Terminal Aerodrome Forecast
Issued by NWS Central Illinois

Home | Current Version | Previous Version | Text Only | Print | Product List | Glossary On
Versions: 1 2 3 4 5 6 7 8 9 10 11 12 13
000
FTUS43 KILX 282341
TAFSPI
TAF
KSPI 282341Z 2900/2924 16009KT P6SM BKN150
     FM291500 18007KT P6SM BKN070
     FM291800 18007KT P6SM VCSH BKN080=

USA.gov is the U.S. government's official web portal to all federal, state and local government web resources and services.